sensor_id;sensor_type;location;lat;lon;timestamp;P1;durP1;ratioP1;P2;durP2;ratioP2
9834;SDS011;4956;50.996;13.716;2022-11-04T00:02:29;18.80;;;12.60;;
9834;SDS011;4956;50.996;13.716;2022-11-04T00:05:49;15.45;;;11.45;;
9834;SDS011;4956;50.996;13.716;2022-11-04T00:09:10;18.85;;;11.85;;
9834;SDS011;4956;50.996;13.716;2022-11-04T00:12:32;17.33;;;13.15;;
9834;SDS011;4956;50.996;13.716;2022-11-04T00:15:53;20.40;;;13.70;;
9834;SDS011;4956;50.996;13.716;2022-11-04T00:19:31;18.10;;;13.65;;
9834;SDS011;4956;50.996;13.716;2022-11-04T00:23:13;18.45;;;13.20;;
9834;SDS011;4956;50.996;13.716;2022-11-04T00:26:52;21.27;;;14.60;;
9834;SDS011;4956;50.996;13.716;2022-11-04T00:30:31;20.25;;;14.48;;
9834;SDS011;4956;50.996;13.716;2022-11-04T00:33:52;23.25;;;15.38;;
9834;SDS011;4956;50.996;13.716;2022-11-04T00:37:14;25.00;;;17.02;;
9834;SDS011;4956;50.996;13.716;2022-11-04T00:40:34;24.38;;;15.35;;
9834;SDS011;4956;50.996;13.716;2022-11-04T00:43:55;19.98;;;15.45;;
9834;SDS011;4956;50.996;13.716;2022-11-04T00:47:17;20.08;;;14.77;;
9834;SDS011;4956;50.996;13.716;2022-11-04T00:50:37;21.15;;;15.55;;
9834;SDS011;4956;50.996;13.716;2022-11-04T00:53:58;24.13;;;15.93;;
9834;SDS011;4956;50.996;13.716;2022-11-04T00:57:18;22.73;;;16.45;;
9834;SDS011;4956;50.996;13.716;2022-11-04T01:00:39;23.13;;;16.88;;
9834;SDS011;4956;50.996;13.716;2022-11-04T01:03:59;23.67;;;18.02;;
9834;SDS011;4956;50.996;13.716;2022-11-04T01:07:19;24.25;;;18.13;;
9834;SDS011;4956;50.996;13.716;2022-11-04T01:10:40;23.30;;;18.33;;
9834;SDS011;4956;50.996;13.716;2022-11-04T01:14:03;21.52;;;18.08;;
9834;SDS011;4956;50.996;13.716;2022-11-04T01:17:26;24.38;;;18.20;;
9834;SDS011;4956;50.996;13.716;2022-11-04T01:20:46;27.58;;;19.30;;
9834;SDS011;4956;50.996;13.716;2022-11-04T01:24:06;25.70;;;20.38;;
9834;SDS011;4956;50.996;13.716;2022-11-04T01:27:27;26.63;;;20.77;;
9834;SDS011;4956;50.996;13.716;2022-11-04T01:30:47;25.55;;;21.02;;
9834;SDS011;4956;50.996;13.716;2022-11-04T01:34:07;28.33;;;22.05;;
9834;SDS011;4956;50.996;13.716;2022-11-04T01:37:28;28.67;;;22.17;;
9834;SDS011;4956;50.996;13.716;2022-11-04T01:40:48;31.02;;;23.02;;
9834;SDS011;4956;50.996;13.716;2022-11-04T01:48:01;29.75;;;22.60;;
9834;SDS011;4956;50.996;13.716;2022-11-04T01:51:24;29.77;;;23.17;;
9834;SDS011;4956;50.996;13.716;2022-11-04T01:54:45;32.88;;;24.48;;
9834;SDS011;4956;50.996;13.716;2022-11-04T01:58:08;32.72;;;24.83;;
9834;SDS011;4956;50.996;13.716;2022-11-04T02:01:30;34.13;;;25.77;;
9834;SDS011;4956;50.996;13.716;2022-11-04T02:04:50;35.92;;;26.85;;
9834;SDS011;4956;50.996;13.716;2022-11-04T02:08:11;35.72;;;26.35;;
9834;SDS011;4956;50.996;13.716;2022-11-04T02:11:33;36.03;;;26.65;;
9834;SDS011;4956;50.996;13.716;2022-11-04T02:15:12;38.85;;;27.02;;
9834;SDS011;4956;50.996;13.716;2022-11-04T02:18:40;33.33;;;25.45;;
9834;SDS011;4956;50.996;13.716;2022-11-04T02:25:50;36.17;;;25.65;;
9834;SDS011;4956;50.996;13.716;2022-11-04T02:36:32;34.97;;;25.65;;
9834;SDS011;4956;50.996;13.716;2022-11-04T02:43:47;33.83;;;25.70;;
9834;SDS011;4956;50.996;13.716;2022-11-04T02:47:18;38.70;;;25.45;;
9834;SDS011;4956;50.996;13.716;2022-11-04T02:51:24;38.42;;;27.75;;
9834;SDS011;4956;50.996;13.716;2022-11-04T02:54:50;36.50;;;26.95;;
9834;SDS011;4956;50.996;13.716;2022-11-04T02:58:21;36.13;;;26.83;;
9834;SDS011;4956;50.996;13.716;2022-11-04T03:01:44;36.75;;;27.20;;
9834;SDS011;4956;50.996;13.716;2022-11-04T03:05:05;35.42;;;26.95;;
9834;SDS011;4956;50.996;13.716;2022-11-04T03:08:30;31.02;;;24.80;;
9834;SDS011;4956;50.996;13.716;2022-11-04T03:11:55;34.38;;;24.73;;
9834;SDS011;4956;50.996;13.716;2022-11-04T03:15:20;30.17;;;23.10;;
9834;SDS011;4956;50.996;13.716;2022-11-04T03:19:00;30.00;;;22.65;;
9834;SDS011;4956;50.996;13.716;2022-11-04T03:22:44;29.80;;;23.33;;
9834;SDS011;4956;50.996;13.716;2022-11-04T03:26:48;27.00;;;21.30;;
9834;SDS011;4956;50.996;13.716;2022-11-04T03:29:52;26.70;;;19.40;;
9834;SDS011;4956;50.996;13.716;2022-11-04T03:33:23;29.20;;;20.00;;
9834;SDS011;4956;50.996;13.716;2022-11-04T03:36:47;23.88;;;18.90;;
9834;SDS011;4956;50.996;13.716;2022-11-04T03:40:08;26.63;;;20.20;;
9834;SDS011;4956;50.996;13.716;2022-11-04T03:43:29;26.15;;;19.23;;
9834;SDS011;4956;50.996;13.716;2022-11-04T03:46:50;25.23;;;18.25;;
9834;SDS011;4956;50.996;13.716;2022-11-04T03:50:17;24.60;;;18.30;;
9834;SDS011;4956;50.996;13.716;2022-11-04T03:53:42;25.10;;;18.33;;
9834;SDS011;4956;50.996;13.716;2022-11-04T04:01:08;27.35;;;19.23;;
9834;SDS011;4956;50.996;13.716;2022-11-04T04:04:41;28.38;;;19.73;;
9834;SDS011;4956;50.996;13.716;2022-11-04T04:08:13;23.50;;;17.98;;
9834;SDS011;4956;50.996;13.716;2022-11-04T04:11:45;26.17;;;19.52;;
9834;SDS011;4956;50.996;13.716;2022-11-04T04:15:17;27.15;;;19.58;;
9834;SDS011;4956;50.996;13.716;2022-11-04T04:18:42;24.58;;;19.02;;
9834;SDS011;4956;50.996;13.716;2022-11-04T04:22:18;31.75;;;22.08;;
9834;SDS011;4956;50.996;13.716;2022-11-04T04:25:41;31.60;;;23.67;;
9834;SDS011;4956;50.996;13.716;2022-11-04T04:29:20;33.00;;;23.90;;
9834;SDS011;4956;50.996;13.716;2022-11-04T04:36:17;34.25;;;24.40;;
9834;SDS011;4956;50.996;13.716;2022-11-04T04:39:42;31.50;;;22.63;;
9834;SDS011;4956;50.996;13.716;2022-11-04T04:43:24;30.65;;;22.77;;
9834;SDS011;4956;50.996;13.716;2022-11-04T04:47:03;35.55;;;25.23;;
9834;SDS011;4956;50.996;13.716;2022-11-04T04:50:25;42.72;;;31.30;;
9834;SDS011;4956;50.996;13.716;2022-11-04T04:53:48;44.10;;;30.88;;
9834;SDS011;4956;50.996;13.716;2022-11-04T04:57:08;43.08;;;30.35;;
9834;SDS011;4956;50.996;13.716;2022-11-04T05:00:28;50.47;;;34.70;;
9834;SDS011;4956;50.996;13.716;2022-11-04T05:03:49;50.03;;;33.15;;
9834;SDS011;4956;50.996;13.716;2022-11-04T05:07:09;44.90;;;31.65;;
9834;SDS011;4956;50.996;13.716;2022-11-04T05:10:29;42.95;;;31.55;;
9834;SDS011;4956;50.996;13.716;2022-11-04T05:13:50;45.30;;;31.98;;
9834;SDS011;4956;50.996;13.716;2022-11-04T05:17:10;44.33;;;30.98;;
9834;SDS011;4956;50.996;13.716;2022-11-04T05:20:30;46.10;;;31.85;;
9834;SDS011;4956;50.996;13.716;2022-11-04T05:23:53;49.38;;;32.53;;
9834;SDS011;4956;50.996;13.716;2022-11-04T05:27:13;48.85;;;32.60;;
9834;SDS011;4956;50.996;13.716;2022-11-04T05:30:33;44.20;;;31.67;;
9834;SDS011;4956;50.996;13.716;2022-11-04T05:33:54;49.40;;;32.67;;
9834;SDS011;4956;50.996;13.716;2022-11-04T05:37:14;43.47;;;30.55;;
9834;SDS011;4956;50.996;13.716;2022-11-04T05:40:35;39.88;;;28.27;;
9834;SDS011;4956;50.996;13.716;2022-11-04T05:43:57;38.38;;;27.35;;
9834;SDS011;4956;50.996;13.716;2022-11-04T05:47:18;37.90;;;27.40;;
9834;SDS011;4956;50.996;13.716;2022-11-04T05:50:39;39.80;;;28.42;;
9834;SDS011;4956;50.996;13.716;2022-11-04T05:54:02;37.22;;;26.27;;
9834;SDS011;4956;50.996;13.716;2022-11-04T05:57:23;36.75;;;25.65;;
9834;SDS011;4956;50.996;13.716;2022-11-04T06:00:43;34.67;;;23.33;;
9834;SDS011;4956;50.996;13.716;2022-11-04T06:04:04;30.55;;;21.80;;
9834;SDS011;4956;50.996;13.716;2022-11-04T06:07:25;33.47;;;21.33;;
9834;SDS011;4956;50.996;13.716;2022-11-04T06:10:45;32.78;;;21.88;;
9834;SDS011;4956;50.996;13.716;2022-11-04T06:14:05;31.10;;;21.38;;
9834;SDS011;4956;50.996;13.716;2022-11-04T06:17:26;32.40;;;21.35;;
9834;SDS011;4956;50.996;13.716;2022-11-04T06:20:46;28.83;;;19.30;;
9834;SDS011;4956;50.996;13.716;2022-11-04T06:24:06;24.10;;;16.92;;
9834;SDS011;4956;50.996;13.716;2022-11-04T06:27:27;22.70;;;15.05;;
9834;SDS011;4956;50.996;13.716;2022-11-04T06:30:47;20.25;;;13.73;;
9834;SDS011;4956;50.996;13.716;2022-11-04T06:34:07;20.42;;;13.07;;
9834;SDS011;4956;50.996;13.716;2022-11-04T06:37:28;21.13;;;13.32;;
9834;SDS011;4956;50.996;13.716;2022-11-04T06:40:48;19.13;;;13.35;;
9834;SDS011;4956;50.996;13.716;2022-11-04T06:44:08;17.08;;;11.95;;
9834;SDS011;4956;50.996;13.716;2022-11-04T06:47:29;15.55;;;10.98;;
9834;SDS011;4956;50.996;13.716;2022-11-04T06:50:49;17.38;;;11.15;;
9834;SDS011;4956;50.996;13.716;2022-11-04T06:54:10;17.05;;;10.57;;
9834;SDS011;4956;50.996;13.716;2022-11-04T06:57:30;15.68;;;9.85;;
9834;SDS011;4956;50.996;13.716;2022-11-04T07:00:51;13.82;;;9.95;;
9834;SDS011;4956;50.996;13.716;2022-11-04T07:04:11;14.05;;;9.38;;
9834;SDS011;4956;50.996;13.716;2022-11-04T07:07:32;12.75;;;9.05;;
9834;SDS011;4956;50.996;13.716;2022-11-04T07:10:53;13.20;;;8.90;;
9834;SDS011;4956;50.996;13.716;2022-11-04T07:14:14;12.32;;;8.85;;
9834;SDS011;4956;50.996;13.716;2022-11-04T07:17:34;11.63;;;8.35;;
9834;SDS011;4956;50.996;13.716;2022-11-04T07:20:56;11.85;;;8.20;;
9834;SDS011;4956;50.996;13.716;2022-11-04T07:24:17;12.30;;;8.43;;
9834;SDS011;4956;50.996;13.716;2022-11-04T07:27:37;11.32;;;8.15;;
9834;SDS011;4956;50.996;13.716;2022-11-04T07:30:59;9.90;;;7.55;;
9834;SDS011;4956;50.996;13.716;2022-11-04T07:34:20;9.68;;;6.75;;
9834;SDS011;4956;50.996;13.716;2022-11-04T07:37:40;10.10;;;7.00;;
9834;SDS011;4956;50.996;13.716;2022-11-04T07:41:00;9.10;;;6.60;;
9834;SDS011;4956;50.996;13.716;2022-11-04T07:44:21;9.13;;;6.68;;
9834;SDS011;4956;50.996;13.716;2022-11-04T07:47:42;9.80;;;7.05;;
9834;SDS011;4956;50.996;13.716;2022-11-04T07:51:03;8.02;;;5.85;;
9834;SDS011;4956;50.996;13.716;2022-11-04T07:54:25;8.60;;;6.35;;
9834;SDS011;4956;50.996;13.716;2022-11-04T07:57:46;8.63;;;5.95;;
9834;SDS011;4956;50.996;13.716;2022-11-04T08:01:07;7.57;;;5.63;;
9834;SDS011;4956;50.996;13.716;2022-11-04T08:04:29;7.63;;;5.72;;
9834;SDS011;4956;50.996;13.716;2022-11-04T08:07:50;6.82;;;5.10;;
9834;SDS011;4956;50.996;13.716;2022-11-04T08:11:12;7.97;;;5.85;;
9834;SDS011;4956;50.996;13.716;2022-11-04T08:14:34;6.63;;;5.45;;
9834;SDS011;4956;50.996;13.716;2022-11-04T08:17:55;9.45;;;5.30;;
9834;SDS011;4956;50.996;13.716;2022-11-04T08:21:15;7.55;;;5.38;;
9834;SDS011;4956;50.996;13.716;2022-11-04T08:24:36;8.82;;;5.40;;
9834;SDS011;4956;50.996;13.716;2022-11-04T08:27:57;5.75;;;4.57;;
9834;SDS011;4956;50.996;13.716;2022-11-04T08:34:39;6.32;;;4.90;;
9834;SDS011;4956;50.996;13.716;2022-11-04T08:38:01;6.18;;;4.70;;
9834;SDS011;4956;50.996;13.716;2022-11-04T08:41:23;6.28;;;5.00;;
9834;SDS011;4956;50.996;13.716;2022-11-04T08:44:45;7.25;;;4.90;;
9834;SDS011;4956;50.996;13.716;2022-11-04T08:48:10;7.00;;;4.97;;
9834;SDS011;4956;50.996;13.716;2022-11-04T08:51:32;8.02;;;5.28;;
9834;SDS011;4956;50.996;13.716;2022-11-04T08:54:53;8.10;;;6.07;;
9834;SDS011;4956;50.996;13.716;2022-11-04T08:58:14;10.20;;;6.25;;
9834;SDS011;4956;50.996;13.716;2022-11-04T09:01:35;9.10;;;6.82;;
9834;SDS011;4956;50.996;13.716;2022-11-04T09:04:55;8.75;;;6.93;;
9834;SDS011;4956;50.996;13.716;2022-11-04T09:08:16;9.60;;;6.65;;
9834;SDS011;4956;50.996;13.716;2022-11-04T09:11:37;8.68;;;6.75;;
9834;SDS011;4956;50.996;13.716;2022-11-04T09:14:59;8.75;;;6.05;;
9834;SDS011;4956;50.996;13.716;2022-11-04T09:18:19;8.75;;;6.22;;
9834;SDS011;4956;50.996;13.716;2022-11-04T09:21:39;9.35;;;6.20;;
9834;SDS011;4956;50.996;13.716;2022-11-04T09:25:00;10.32;;;6.78;;
9834;SDS011;4956;50.996;13.716;2022-11-04T09:28:20;10.95;;;6.30;;
9834;SDS011;4956;50.996;13.716;2022-11-04T09:31:41;7.35;;;6.00;;
9834;SDS011;4956;50.996;13.716;2022-11-04T09:35:02;8.57;;;5.68;;
9834;SDS011;4956;50.996;13.716;2022-11-04T09:38:24;8.57;;;5.97;;
9834;SDS011;4956;50.996;13.716;2022-11-04T09:45:25;8.43;;;5.90;;
9834;SDS011;4956;50.996;13.716;2022-11-04T09:48:50;9.38;;;6.80;;
9834;SDS011;4956;50.996;13.716;2022-11-04T09:52:20;10.73;;;6.75;;
9834;SDS011;4956;50.996;13.716;2022-11-04T09:56:18;9.27;;;6.50;;
9834;SDS011;4956;50.996;13.716;2022-11-04T09:59:40;9.43;;;5.80;;
9834;SDS011;4956;50.996;13.716;2022-11-04T10:03:22;7.15;;;5.40;;
9834;SDS011;4956;50.996;13.716;2022-11-04T10:14:26;8.43;;;6.47;;
9834;SDS011;4956;50.996;13.716;2022-11-04T10:25:20;8.10;;;5.90;;
9834;SDS011;4956;50.996;13.716;2022-11-04T10:28:43;8.05;;;5.40;;
9834;SDS011;4956;50.996;13.716;2022-11-04T10:36:06;7.22;;;5.15;;
9834;SDS011;4956;50.996;13.716;2022-11-04T10:39:33;7.28;;;4.50;;
9834;SDS011;4956;50.996;13.716;2022-11-04T10:42:56;8.10;;;5.15;;
9834;SDS011;4956;50.996;13.716;2022-11-04T10:50:17;15.82;;;7.82;;
9834;SDS011;4956;50.996;13.716;2022-11-04T10:53:43;13.40;;;6.90;;
9834;SDS011;4956;50.996;13.716;2022-11-04T10:57:03;12.27;;;5.70;;
9834;SDS011;4956;50.996;13.716;2022-11-04T11:00:39;8.75;;;5.53;;
9834;SDS011;4956;50.996;13.716;2022-11-04T11:04:00;7.75;;;4.38;;
9834;SDS011;4956;50.996;13.716;2022-11-04T11:07:26;5.95;;;4.07;;
9834;SDS011;4956;50.996;13.716;2022-11-04T11:10:56;5.70;;;3.70;;
9834;SDS011;4956;50.996;13.716;2022-11-04T11:14:17;6.20;;;4.03;;
9834;SDS011;4956;50.996;13.716;2022-11-04T11:17:47;5.93;;;4.30;;
9834;SDS011;4956;50.996;13.716;2022-11-04T11:24:40;6.63;;;4.03;;
9834;SDS011;4956;50.996;13.716;2022-11-04T11:28:09;6.38;;;4.20;;
9834;SDS011;4956;50.996;13.716;2022-11-04T11:31:40;7.30;;;4.30;;
9834;SDS011;4956;50.996;13.716;2022-11-04T11:35:01;4.60;;;3.95;;
9834;SDS011;4956;50.996;13.716;2022-11-04T11:38:29;6.07;;;4.40;;
9834;SDS011;4956;50.996;13.716;2022-11-04T11:42:04;6.30;;;4.00;;
9834;SDS011;4956;50.996;13.716;2022-11-04T11:45:26;7.70;;;4.65;;
9834;SDS011;4956;50.996;13.716;2022-11-04T11:48:51;5.15;;;4.00;;
9834;SDS011;4956;50.996;13.716;2022-11-04T11:52:26;4.38;;;3.65;;
9834;SDS011;4956;50.996;13.716;2022-11-04T11:59:41;6.28;;;4.03;;
9834;SDS011;4956;50.996;13.716;2022-11-04T12:03:14;4.72;;;3.65;;
9834;SDS011;4956;50.996;13.716;2022-11-04T12:06:45;3.95;;;3.53;;
9834;SDS011;4956;50.996;13.716;2022-11-04T12:14:04;6.38;;;4.20;;
9834;SDS011;4956;50.996;13.716;2022-11-04T12:28:30;4.38;;;3.38;;
9834;SDS011;4956;50.996;13.716;2022-11-04T12:32:12;4.03;;;3.58;;
9834;SDS011;4956;50.996;13.716;2022-11-04T12:47:04;4.45;;;3.88;;
9834;SDS011;4956;50.996;13.716;2022-11-04T13:02:28;5.03;;;4.10;;
9834;SDS011;4956;50.996;13.716;2022-11-04T13:05:48;5.10;;;4.10;;
9834;SDS011;4956;50.996;13.716;2022-11-04T13:09:15;6.22;;;4.80;;
9834;SDS011;4956;50.996;13.716;2022-11-04T13:12:39;6.28;;;4.75;;
9834;SDS011;4956;50.996;13.716;2022-11-04T13:16:05;7.30;;;5.57;;
9834;SDS011;4956;50.996;13.716;2022-11-04T13:22:51;8.20;;;6.28;;
9834;SDS011;4956;50.996;13.716;2022-11-04T13:26:13;8.18;;;6.30;;
9834;SDS011;4956;50.996;13.716;2022-11-04T13:29:34;8.63;;;6.72;;
9834;SDS011;4956;50.996;13.716;2022-11-04T13:32:57;8.10;;;6.45;;
9834;SDS011;4956;50.996;13.716;2022-11-04T13:36:27;8.65;;;6.97;;
9834;SDS011;4956;50.996;13.716;2022-11-04T13:39:54;8.85;;;6.90;;
9834;SDS011;4956;50.996;13.716;2022-11-04T13:46:59;8.70;;;5.60;;
9834;SDS011;4956;50.996;13.716;2022-11-04T13:50:29;8.70;;;4.97;;
9834;SDS011;4956;50.996;13.716;2022-11-04T13:53:55;7.30;;;5.10;;
9834;SDS011;4956;50.996;13.716;2022-11-04T13:57:26;6.35;;;4.57;;
9834;SDS011;4956;50.996;13.716;2022-11-04T14:04:30;6.82;;;4.38;;
9834;SDS011;4956;50.996;13.716;2022-11-04T14:11:23;6.18;;;4.60;;
9834;SDS011;4956;50.996;13.716;2022-11-04T14:14:44;10.90;;;5.38;;
9834;SDS011;4956;50.996;13.716;2022-11-04T14:18:24;9.05;;;6.10;;
9834;SDS011;4956;50.996;13.716;2022-11-04T14:22:05;9.20;;;6.03;;
9834;SDS011;4956;50.996;13.716;2022-11-04T14:25:36;8.45;;;6.07;;
9834;SDS011;4956;50.996;13.716;2022-11-04T14:29:05;10.32;;;6.22;;
9834;SDS011;4956;50.996;13.716;2022-11-04T14:32:35;9.75;;;6.72;;
9834;SDS011;4956;50.996;13.716;2022-11-04T14:39:38;8.85;;;7.13;;
9834;SDS011;4956;50.996;13.716;2022-11-04T14:42:59;8.75;;;6.72;;
9834;SDS011;4956;50.996;13.716;2022-11-04T14:46:21;9.10;;;6.63;;
9834;SDS011;4956;50.996;13.716;2022-11-04T14:53:12;9.57;;;6.82;;
9834;SDS011;4956;50.996;13.716;2022-11-04T14:56:39;8.77;;;6.05;;
9834;SDS011;4956;50.996;13.716;2022-11-04T15:00:16;9.40;;;7.20;;
9834;SDS011;4956;50.996;13.716;2022-11-04T15:10:56;10.32;;;6.88;;
9834;SDS011;4956;50.996;13.716;2022-11-04T15:14:22;9.93;;;7.55;;
9834;SDS011;4956;50.996;13.716;2022-11-04T15:17:44;13.00;;;7.85;;
9834;SDS011;4956;50.996;13.716;2022-11-04T15:21:06;10.88;;;7.38;;
9834;SDS011;4956;50.996;13.716;2022-11-04T15:24:28;11.07;;;7.70;;
9834;SDS011;4956;50.996;13.716;2022-11-04T15:27:50;10.32;;;6.95;;
9834;SDS011;4956;50.996;13.716;2022-11-04T15:34:32;7.85;;;6.53;;
9834;SDS011;4956;50.996;13.716;2022-11-04T15:37:54;9.07;;;6.78;;
9834;SDS011;4956;50.996;13.716;2022-11-04T15:41:17;8.52;;;6.70;;
9834;SDS011;4956;50.996;13.716;2022-11-04T15:44:57;8.90;;;7.07;;
9834;SDS011;4956;50.996;13.716;2022-11-04T15:52:06;9.70;;;7.55;;
9834;SDS011;4956;50.996;13.716;2022-11-04T15:55:27;11.63;;;7.50;;
9834;SDS011;4956;50.996;13.716;2022-11-04T15:58:56;11.15;;;8.38;;
9834;SDS011;4956;50.996;13.716;2022-11-04T16:02:27;10.57;;;7.50;;
9834;SDS011;4956;50.996;13.716;2022-11-04T16:06:02;10.73;;;7.60;;
9834;SDS011;4956;50.996;13.716;2022-11-04T16:09:25;11.65;;;8.35;;
9834;SDS011;4956;50.996;13.716;2022-11-04T16:12:46;9.82;;;7.75;;
9834;SDS011;4956;50.996;13.716;2022-11-04T16:16:18;12.00;;;7.63;;
9834;SDS011;4956;50.996;13.716;2022-11-04T16:19:47;10.73;;;8.13;;
9834;SDS011;4956;50.996;13.716;2022-11-04T16:23:12;11.40;;;8.18;;
9834;SDS011;4956;50.996;13.716;2022-11-04T16:26:42;11.48;;;8.52;;
9834;SDS011;4956;50.996;13.716;2022-11-04T16:30:08;11.73;;;8.82;;
9834;SDS011;4956;50.996;13.716;2022-11-04T16:33:34;12.10;;;9.38;;
9834;SDS011;4956;50.996;13.716;2022-11-04T16:36:57;11.38;;;9.10;;
9834;SDS011;4956;50.996;13.716;2022-11-04T16:40:18;11.32;;;9.13;;
9834;SDS011;4956;50.996;13.716;2022-11-04T16:43:39;10.52;;;8.68;;
9834;SDS011;4956;50.996;13.716;2022-11-04T16:47:00;9.45;;;7.82;;
9834;SDS011;4956;50.996;13.716;2022-11-04T16:50:21;11.57;;;8.43;;
9834;SDS011;4956;50.996;13.716;2022-11-04T16:53:45;9.65;;;7.50;;
9834;SDS011;4956;50.996;13.716;2022-11-04T16:57:09;8.60;;;7.28;;
9834;SDS011;4956;50.996;13.716;2022-11-04T17:00:32;10.40;;;7.60;;
9834;SDS011;4956;50.996;13.716;2022-11-04T17:03:52;9.75;;;6.65;;
9834;SDS011;4956;50.996;13.716;2022-11-04T17:07:13;9.10;;;7.00;;
9834;SDS011;4956;50.996;13.716;2022-11-04T17:10:33;10.27;;;7.22;;
9834;SDS011;4956;50.996;13.716;2022-11-04T17:13:55;8.70;;;6.80;;
9834;SDS011;4956;50.996;13.716;2022-11-04T17:17:15;10.35;;;7.18;;
9834;SDS011;4956;50.996;13.716;2022-11-04T17:20:36;10.02;;;7.18;;
9834;SDS011;4956;50.996;13.716;2022-11-04T17:23:58;8.57;;;7.13;;
9834;SDS011;4956;50.996;13.716;2022-11-04T17:27:19;9.40;;;7.35;;
9834;SDS011;4956;50.996;13.716;2022-11-04T17:30:40;9.75;;;7.78;;
9834;SDS011;4956;50.996;13.716;2022-11-04T17:34:00;9.20;;;7.57;;
9834;SDS011;4956;50.996;13.716;2022-11-04T17:37:21;8.77;;;6.93;;
9834;SDS011;4956;50.996;13.716;2022-11-04T17:40:42;9.18;;;7.47;;
9834;SDS011;4956;50.996;13.716;2022-11-04T17:44:21;8.77;;;6.93;;
9834;SDS011;4956;50.996;13.716;2022-11-04T17:47:42;8.85;;;7.38;;
9834;SDS011;4956;50.996;13.716;2022-11-04T17:51:05;11.68;;;8.05;;
9834;SDS011;4956;50.996;13.716;2022-11-04T17:54:27;11.70;;;7.88;;
9834;SDS011;4956;50.996;13.716;2022-11-04T17:57:48;12.55;;;8.60;;
9834;SDS011;4956;50.996;13.716;2022-11-04T18:01:09;10.82;;;8.07;;
9834;SDS011;4956;50.996;13.716;2022-11-04T18:04:30;10.32;;;7.90;;
9834;SDS011;4956;50.996;13.716;2022-11-04T18:07:50;11.05;;;7.47;;
9834;SDS011;4956;50.996;13.716;2022-11-04T18:11:13;11.20;;;8.60;;
9834;SDS011;4956;50.996;13.716;2022-11-04T18:14:54;9.70;;;7.60;;
9834;SDS011;4956;50.996;13.716;2022-11-04T18:18:14;11.13;;;7.82;;
9834;SDS011;4956;50.996;13.716;2022-11-04T18:21:34;10.48;;;7.93;;
9834;SDS011;4956;50.996;13.716;2022-11-04T18:24:55;11.85;;;8.13;;
9834;SDS011;4956;50.996;13.716;2022-11-04T18:28:15;11.13;;;8.50;;
9834;SDS011;4956;50.996;13.716;2022-11-04T18:31:36;10.77;;;7.47;;
9834;SDS011;4956;50.996;13.716;2022-11-04T18:34:58;10.55;;;8.18;;
9834;SDS011;4956;50.996;13.716;2022-11-04T18:38:20;11.10;;;8.60;;
9834;SDS011;4956;50.996;13.716;2022-11-04T18:41:41;12.15;;;8.98;;
9834;SDS011;4956;50.996;13.716;2022-11-04T18:45:01;10.70;;;8.23;;
9834;SDS011;4956;50.996;13.716;2022-11-04T18:48:22;11.30;;;8.57;;
9834;SDS011;4956;50.996;13.716;2022-11-04T18:51:42;11.73;;;8.68;;
9834;SDS011;4956;50.996;13.716;2022-11-04T18:55:03;11.45;;;8.55;;
9834;SDS011;4956;50.996;13.716;2022-11-04T18:58:24;10.88;;;8.77;;
9834;SDS011;4956;50.996;13.716;2022-11-04T19:01:44;11.00;;;8.50;;
9834;SDS011;4956;50.996;13.716;2022-11-04T19:05:05;10.52;;;8.13;;
9834;SDS011;4956;50.996;13.716;2022-11-04T19:08:25;14.15;;;9.13;;
9834;SDS011;4956;50.996;13.716;2022-11-04T19:11:46;10.32;;;8.57;;
9834;SDS011;4956;50.996;13.716;2022-11-04T19:15:06;10.02;;;8.20;;
9834;SDS011;4956;50.996;13.716;2022-11-04T19:18:27;11.70;;;8.88;;
9834;SDS011;4956;50.996;13.716;2022-11-04T19:21:47;11.40;;;8.85;;
9834;SDS011;4956;50.996;13.716;2022-11-04T19:25:09;12.73;;;9.30;;
9834;SDS011;4956;50.996;13.716;2022-11-04T19:28:29;13.82;;;9.50;;
9834;SDS011;4956;50.996;13.716;2022-11-04T19:31:50;13.73;;;8.93;;
9834;SDS011;4956;50.996;13.716;2022-11-04T19:35:10;11.38;;;8.70;;
9834;SDS011;4956;50.996;13.716;2022-11-04T19:38:31;10.32;;;8.50;;
9834;SDS011;4956;50.996;13.716;2022-11-04T19:41:51;11.65;;;8.27;;
9834;SDS011;4956;50.996;13.716;2022-11-04T19:45:30;11.57;;;8.85;;
9834;SDS011;4956;50.996;13.716;2022-11-04T19:48:51;11.82;;;9.00;;
9834;SDS011;4956;50.996;13.716;2022-11-04T19:52:11;13.43;;;8.70;;
9834;SDS011;4956;50.996;13.716;2022-11-04T19:55:32;11.70;;;9.05;;
9834;SDS011;4956;50.996;13.716;2022-11-04T19:58:52;11.75;;;8.40;;
9834;SDS011;4956;50.996;13.716;2022-11-04T20:02:13;10.60;;;8.40;;
9834;SDS011;4956;50.996;13.716;2022-11-04T20:05:37;12.10;;;8.45;;
9834;SDS011;4956;50.996;13.716;2022-11-04T20:09:00;11.73;;;9.07;;
9834;SDS011;4956;50.996;13.716;2022-11-04T20:12:24;14.05;;;9.27;;
9834;SDS011;4956;50.996;13.716;2022-11-04T20:16:10;13.38;;;9.40;;
9834;SDS011;4956;50.996;13.716;2022-11-04T20:19:47;15.80;;;10.07;;
9834;SDS011;4956;50.996;13.716;2022-11-04T20:23:08;16.15;;;10.00;;
9834;SDS011;4956;50.996;13.716;2022-11-04T20:26:29;16.70;;;10.38;;
9834;SDS011;4956;50.996;13.716;2022-11-04T20:29:50;15.48;;;9.95;;
9834;SDS011;4956;50.996;13.716;2022-11-04T20:33:10;14.38;;;9.80;;
9834;SDS011;4956;50.996;13.716;2022-11-04T20:36:30;17.45;;;9.57;;
9834;SDS011;4956;50.996;13.716;2022-11-04T20:39:51;13.20;;;8.85;;
9834;SDS011;4956;50.996;13.716;2022-11-04T20:43:11;10.85;;;8.07;;
9834;SDS011;4956;50.996;13.716;2022-11-04T20:46:32;11.55;;;8.07;;
9834;SDS011;4956;50.996;13.716;2022-11-04T20:49:53;11.25;;;8.38;;
9834;SDS011;4956;50.996;13.716;2022-11-04T20:53:14;11.80;;;8.15;;
9834;SDS011;4956;50.996;13.716;2022-11-04T20:56:35;11.52;;;8.77;;
9834;SDS011;4956;50.996;13.716;2022-11-04T20:59:56;11.75;;;8.85;;
9834;SDS011;4956;50.996;13.716;2022-11-04T21:03:16;11.80;;;8.85;;
9834;SDS011;4956;50.996;13.716;2022-11-04T21:06:37;13.15;;;8.93;;
9834;SDS011;4956;50.996;13.716;2022-11-04T21:09:58;12.60;;;8.68;;
9834;SDS011;4956;50.996;13.716;2022-11-04T21:13:18;13.95;;;8.77;;
9834;SDS011;4956;50.996;13.716;2022-11-04T21:16:39;15.75;;;9.07;;
9834;SDS011;4956;50.996;13.716;2022-11-04T21:19:59;12.55;;;8.88;;
9834;SDS011;4956;50.996;13.716;2022-11-04T21:23:20;10.45;;;8.90;;
9834;SDS011;4956;50.996;13.716;2022-11-04T21:26:41;10.65;;;8.73;;
9834;SDS011;4956;50.996;13.716;2022-11-04T21:30:02;13.52;;;9.15;;
9834;SDS011;4956;50.996;13.716;2022-11-04T21:33:22;14.80;;;9.30;;
9834;SDS011;4956;50.996;13.716;2022-11-04T21:36:43;15.25;;;8.55;;
9834;SDS011;4956;50.996;13.716;2022-11-04T21:40:04;13.40;;;9.95;;
9834;SDS011;4956;50.996;13.716;2022-11-04T21:43:25;14.63;;;9.75;;
9834;SDS011;4956;50.996;13.716;2022-11-04T21:46:46;13.15;;;9.63;;
9834;SDS011;4956;50.996;13.716;2022-11-04T21:50:08;15.80;;;10.15;;
9834;SDS011;4956;50.996;13.716;2022-11-04T21:53:29;12.30;;;9.43;;
9834;SDS011;4956;50.996;13.716;2022-11-04T21:56:50;13.57;;;8.95;;
9834;SDS011;4956;50.996;13.716;2022-11-04T22:00:10;13.93;;;9.00;;
9834;SDS011;4956;50.996;13.716;2022-11-04T22:03:33;13.90;;;9.15;;
9834;SDS011;4956;50.996;13.716;2022-11-04T22:06:53;17.45;;;9.90;;
9834;SDS011;4956;50.996;13.716;2022-11-04T22:10:13;12.88;;;8.95;;
9834;SDS011;4956;50.996;13.716;2022-11-04T22:13:34;13.68;;;9.20;;
9834;SDS011;4956;50.996;13.716;2022-11-04T22:16:56;13.68;;;9.57;;
9834;SDS011;4956;50.996;13.716;2022-11-04T22:20:17;15.07;;;10.38;;
9834;SDS011;4956;50.996;13.716;2022-11-04T22:23:37;15.15;;;9.82;;
9834;SDS011;4956;50.996;13.716;2022-11-04T22:26:58;13.93;;;9.95;;
9834;SDS011;4956;50.996;13.716;2022-11-04T22:30:18;14.48;;;9.60;;
9834;SDS011;4956;50.996;13.716;2022-11-04T22:33:38;14.45;;;10.00;;
9834;SDS011;4956;50.996;13.716;2022-11-04T22:36:59;12.43;;;9.93;;
9834;SDS011;4956;50.996;13.716;2022-11-04T22:40:19;14.80;;;11.23;;
9834;SDS011;4956;50.996;13.716;2022-11-04T22:43:40;16.15;;;11.13;;
9834;SDS011;4956;50.996;13.716;2022-11-04T22:47:00;13.50;;;10.88;;